EDDF Airport Information

Runway Information
Runway 07C Length 13123 ft width 197 ft
Elevation 329 ft Threshold 0 ft Heading 70
Runway 25C Length 13123 ft Width 197 ft
Elevation 364 ft Threshold 0 ft Heading 250
Runway 07L Length 9186 ft width 148 ft
Elevation 305 ft Threshold 0 ft Heading 70
Runway 25R Length 9186 ft Width 148 ft
Elevation 353 ft Threshold 0 ft Heading 250
Runway 07R Length 13123 ft width 148 ft
Elevation 328 ft Threshold 0 ft Heading 70
Runway 25L Length 13123 ft Width 148 ft
Elevation 362 ft Threshold 0 ft Heading 250
Runway 18 Length 13123 ft width 148 ft
Elevation 326 ft Threshold 0 ft Heading 180
Runway 36 Length 13123 ft Width 148 ft
Elevation 316 ft Threshold 0 ft Heading 360
Airport Frequencies
Type A/D Name LANGEN RAD Frequency 118.45 MHZ
Type A/D Name LANGEN RAD Frequency 127.275 MHZ
Type AFIS Name LANGEN INF Frequency 119.15 MHZ
Type ATIS Name ATIS Frequency 118.025 MHZ
Type CLD Name DELIVERY Frequency 121.9 MHZ
Type DIR Name DIR Frequency 124.2 MHZ
Type GND Name GND Frequency 121.8 MHZ
Type RMP Name APN Frequency 121.7 MHZ
Type TWR Name TWR Frequency 119.9 MHZ
Airport Navaids
Type VORTAC Name Frankfurt Frequency 114200 KHZ
Type NDB Name Frankfurt Frequency 297 KHZ
Type DME Name Frankfurt Frequency 115900 KHZ
Type NDB Name Frankfurt Frequency 382 KHZ
Airport Weather Information & NOTAM
ADDS - METARS form results

(0812 UTC 22 May 2018)
 
METAR text: EDDF 220750Z 05003KT 9999 VCSH FEW030 FEW045CB SCT070 BKN100 18/13 Q1012 NOSIG
Conditions at: EDDF (FRANKFURT MAIN A, DE) observed 0750 UTC 22 May 2018
Temperature: 18.0°C (64°F)
Dewpoint: 13.0°C (55°F) [RH = 73%]
Pressure (altimeter): 29.88 inches Hg (1012.0 mb)
Winds: from the NE (50 degrees) at 3 MPH (3 knots; 1.6 m/s)
Visibility: 6 or more miles (10+ km)
Ceiling: 10000 feet AGL
Clouds: few clouds at 3000 feet AGL
few clouds at 4500 feet AGL
scattered clouds at 7000 feet AGL
broken clouds at 10000 feet AGL
Weather: VCSH  (showers in vicinity)

METAR text: EDDF 220720Z 07007KT 9999 -SHRA FEW030 FEW050CB SCT070 BKN140 18/10 Q1012 NOSIG
Conditions at: EDDF (FRANKFURT MAIN A, DE) observed 0720 UTC 22 May 2018
Temperature: 18.0°C (64°F)
Dewpoint: 10.0°C (50°F) [RH = 59%]
Pressure (altimeter): 29.88 inches Hg (1012.0 mb)
Winds: from the ENE (70 degrees) at 8 MPH (7 knots; 3.6 m/s)
Visibility: 6 or more miles (10+ km)
Ceiling: 14000 feet AGL
Clouds: few clouds at 3000 feet AGL
few clouds at 5000 feet AGL
scattered clouds at 7000 feet AGL
broken clouds at 14000 feet AGL
Weather: -SHRA  (light rain showers)